sensor_id;sensor_type;location;lat;lon;timestamp;P1;durP1;ratioP1;P2;durP2;ratioP2
30818;SDS011;17546;42.674;23.284;2023-12-20T00:01:16;147.00;;;67.63;;
30818;SDS011;17546;42.674;23.284;2023-12-20T00:03:42;147.90;;;66.70;;
30818;SDS011;17546;42.674;23.284;2023-12-20T00:06:07;152.27;;;68.07;;
30818;SDS011;17546;42.674;23.284;2023-12-20T00:08:33;147.52;;;64.43;;
30818;SDS011;17546;42.674;23.284;2023-12-20T00:10:58;128.15;;;59.40;;
30818;SDS011;17546;42.674;23.284;2023-12-20T00:13:24;139.40;;;65.07;;
30818;SDS011;17546;42.674;23.284;2023-12-20T00:15:49;139.20;;;65.70;;
30818;SDS011;17546;42.674;23.284;2023-12-20T00:18:15;135.40;;;64.43;;
30818;SDS011;17546;42.674;23.284;2023-12-20T00:20:40;143.02;;;62.35;;
30818;SDS011;17546;42.674;23.284;2023-12-20T00:23:06;140.85;;;63.38;;
30818;SDS011;17546;42.674;23.284;2023-12-20T00:25:33;135.52;;;64.38;;
30818;SDS011;17546;42.674;23.284;2023-12-20T00:27:59;140.25;;;64.13;;
30818;SDS011;17546;42.674;23.284;2023-12-20T00:30:25;146.10;;;65.93;;
30818;SDS011;17546;42.674;23.284;2023-12-20T00:32:50;139.80;;;65.72;;
30818;SDS011;17546;42.674;23.284;2023-12-20T00:35:16;153.57;;;66.50;;
30818;SDS011;17546;42.674;23.284;2023-12-20T00:37:42;139.23;;;67.65;;
30818;SDS011;17546;42.674;23.284;2023-12-20T00:40:08;152.70;;;68.53;;
30818;SDS011;17546;42.674;23.284;2023-12-20T00:42:34;149.75;;;67.07;;
30818;SDS011;17546;42.674;23.284;2023-12-20T00:45:00;145.02;;;66.88;;
30818;SDS011;17546;42.674;23.284;2023-12-20T00:47:27;153.13;;;70.38;;
30818;SDS011;17546;42.674;23.284;2023-12-20T00:49:52;150.23;;;70.72;;
30818;SDS011;17546;42.674;23.284;2023-12-20T00:52:18;151.57;;;72.47;;
30818;SDS011;17546;42.674;23.284;2023-12-20T00:54:44;160.40;;;73.53;;
30818;SDS011;17546;42.674;23.284;2023-12-20T00:57:10;156.18;;;72.47;;
30818;SDS011;17546;42.674;23.284;2023-12-20T00:59:35;150.18;;;71.07;;
30818;SDS011;17546;42.674;23.284;2023-12-20T01:02:01;159.30;;;70.63;;
30818;SDS011;17546;42.674;23.284;2023-12-20T01:04:27;150.85;;;68.90;;
30818;SDS011;17546;42.674;23.284;2023-12-20T01:06:52;147.73;;;68.65;;
30818;SDS011;17546;42.674;23.284;2023-12-20T01:09:18;144.50;;;68.10;;
30818;SDS011;17546;42.674;23.284;2023-12-20T01:11:44;145.90;;;66.57;;
30818;SDS011;17546;42.674;23.284;2023-12-20T01:14:11;145.73;;;66.05;;
30818;SDS011;17546;42.674;23.284;2023-12-20T01:16:37;145.13;;;64.25;;
30818;SDS011;17546;42.674;23.284;2023-12-20T01:19:03;135.35;;;64.70;;
30818;SDS011;17546;42.674;23.284;2023-12-20T01:21:28;138.25;;;64.28;;
30818;SDS011;17546;42.674;23.284;2023-12-20T01:23:54;136.15;;;62.88;;
30818;SDS011;17546;42.674;23.284;2023-12-20T01:26:19;144.88;;;63.75;;
30818;SDS011;17546;42.674;23.284;2023-12-20T01:28:45;138.07;;;63.70;;
30818;SDS011;17546;42.674;23.284;2023-12-20T01:31:10;139.07;;;62.08;;
30818;SDS011;17546;42.674;23.284;2023-12-20T01:33:36;134.57;;;58.95;;
30818;SDS011;17546;42.674;23.284;2023-12-20T01:36:01;130.25;;;56.63;;
30818;SDS011;17546;42.674;23.284;2023-12-20T01:38:27;128.55;;;55.42;;
30818;SDS011;17546;42.674;23.284;2023-12-20T01:40:53;112.75;;;54.47;;
30818;SDS011;17546;42.674;23.284;2023-12-20T01:43:18;119.47;;;54.38;;
30818;SDS011;17546;42.674;23.284;2023-12-20T01:45:44;110.38;;;51.70;;
30818;SDS011;17546;42.674;23.284;2023-12-20T01:48:09;116.55;;;51.30;;
30818;SDS011;17546;42.674;23.284;2023-12-20T01:50:36;118.13;;;51.35;;
30818;SDS011;17546;42.674;23.284;2023-12-20T01:53:03;110.05;;;51.35;;
30818;SDS011;17546;42.674;23.284;2023-12-20T01:55:31;103.53;;;48.83;;
30818;SDS011;17546;42.674;23.284;2023-12-20T01:57:58;116.78;;;50.22;;
30818;SDS011;17546;42.674;23.284;2023-12-20T02:00:25;103.95;;;49.17;;
30818;SDS011;17546;42.674;23.284;2023-12-20T02:02:53;105.70;;;46.42;;
30818;SDS011;17546;42.674;23.284;2023-12-20T02:05:22;111.32;;;47.25;;
30818;SDS011;17546;42.674;23.284;2023-12-20T02:07:48;109.95;;;48.15;;
30818;SDS011;17546;42.674;23.284;2023-12-20T02:10:13;110.35;;;48.70;;
30818;SDS011;17546;42.674;23.284;2023-12-20T02:12:39;117.50;;;49.60;;
30818;SDS011;17546;42.674;23.284;2023-12-20T02:15:05;107.40;;;48.55;;
30818;SDS011;17546;42.674;23.284;2023-12-20T02:17:32;119.10;;;52.05;;
30818;SDS011;17546;42.674;23.284;2023-12-20T02:19:58;120.95;;;52.53;;
30818;SDS011;17546;42.674;23.284;2023-12-20T02:22:24;120.55;;;49.22;;
30818;SDS011;17546;42.674;23.284;2023-12-20T02:24:49;125.15;;;49.80;;
30818;SDS011;17546;42.674;23.284;2023-12-20T02:27:15;104.72;;;45.78;;
30818;SDS011;17546;42.674;23.284;2023-12-20T02:29:42;97.50;;;41.50;;
30818;SDS011;17546;42.674;23.284;2023-12-20T02:32:08;98.53;;;40.78;;
30818;SDS011;17546;42.674;23.284;2023-12-20T02:34:34;90.80;;;38.30;;
30818;SDS011;17546;42.674;23.284;2023-12-20T02:36:59;83.90;;;35.90;;
30818;SDS011;17546;42.674;23.284;2023-12-20T02:39:25;79.88;;;34.65;;
30818;SDS011;17546;42.674;23.284;2023-12-20T02:41:50;71.82;;;33.35;;
30818;SDS011;17546;42.674;23.284;2023-12-20T02:44:16;73.53;;;30.83;;
30818;SDS011;17546;42.674;23.284;2023-12-20T02:46:41;65.82;;;29.08;;
30818;SDS011;17546;42.674;23.284;2023-12-20T02:49:07;77.72;;;29.23;;
30818;SDS011;17546;42.674;23.284;2023-12-20T02:51:32;64.45;;;27.05;;
30818;SDS011;17546;42.674;23.284;2023-12-20T02:53:58;59.92;;;26.23;;
30818;SDS011;17546;42.674;23.284;2023-12-20T02:56:23;58.00;;;26.00;;
30818;SDS011;17546;42.674;23.284;2023-12-20T02:58:49;61.60;;;24.63;;
30818;SDS011;17546;42.674;23.284;2023-12-20T03:01:14;55.83;;;25.80;;
30818;SDS011;17546;42.674;23.284;2023-12-20T03:03:40;61.90;;;26.00;;
30818;SDS011;17546;42.674;23.284;2023-12-20T03:06:05;59.90;;;27.30;;
30818;SDS011;17546;42.674;23.284;2023-12-20T03:08:31;62.53;;;26.27;;
30818;SDS011;17546;42.674;23.284;2023-12-20T03:10:56;56.40;;;26.13;;
30818;SDS011;17546;42.674;23.284;2023-12-20T03:13:21;54.05;;;26.40;;
30818;SDS011;17546;42.674;23.284;2023-12-20T03:15:47;63.42;;;28.80;;
30818;SDS011;17546;42.674;23.284;2023-12-20T03:18:12;69.47;;;31.52;;
30818;SDS011;17546;42.674;23.284;2023-12-20T03:20:38;73.13;;;32.92;;
30818;SDS011;17546;42.674;23.284;2023-12-20T03:23:03;95.78;;;42.70;;
30818;SDS011;17546;42.674;23.284;2023-12-20T03:25:29;117.95;;;49.58;;
30818;SDS011;17546;42.674;23.284;2023-12-20T03:27:55;127.75;;;51.20;;
30818;SDS011;17546;42.674;23.284;2023-12-20T03:30:20;113.65;;;52.30;;
30818;SDS011;17546;42.674;23.284;2023-12-20T03:32:46;120.78;;;51.00;;
30818;SDS011;17546;42.674;23.284;2023-12-20T03:35:12;117.20;;;52.67;;
30818;SDS011;17546;42.674;23.284;2023-12-20T03:37:38;111.18;;;51.47;;
30818;SDS011;17546;42.674;23.284;2023-12-20T03:40:04;114.93;;;50.90;;
30818;SDS011;17546;42.674;23.284;2023-12-20T03:42:30;116.57;;;51.08;;
30818;SDS011;17546;42.674;23.284;2023-12-20T03:44:56;114.28;;;52.35;;
30818;SDS011;17546;42.674;23.284;2023-12-20T03:47:21;110.53;;;50.88;;
30818;SDS011;17546;42.674;23.284;2023-12-20T03:49:47;116.65;;;52.92;;
30818;SDS011;17546;42.674;23.284;2023-12-20T03:52:12;125.53;;;54.78;;
30818;SDS011;17546;42.674;23.284;2023-12-20T03:54:38;114.38;;;53.10;;
30818;SDS011;17546;42.674;23.284;2023-12-20T03:57:03;118.47;;;53.60;;
30818;SDS011;17546;42.674;23.284;2023-12-20T03:59:29;127.88;;;55.65;;
30818;SDS011;17546;42.674;23.284;2023-12-20T04:01:59;119.30;;;54.92;;
30818;SDS011;17546;42.674;23.284;2023-12-20T04:04:25;123.70;;;54.15;;
30818;SDS011;17546;42.674;23.284;2023-12-20T04:06:50;120.22;;;54.03;;
30818;SDS011;17546;42.674;23.284;2023-12-20T04:09:16;116.95;;;53.95;;
30818;SDS011;17546;42.674;23.284;2023-12-20T04:11:41;122.60;;;54.25;;
30818;SDS011;17546;42.674;23.284;2023-12-20T04:14:06;125.32;;;55.97;;
30818;SDS011;17546;42.674;23.284;2023-12-20T04:16:32;116.65;;;54.92;;
30818;SDS011;17546;42.674;23.284;2023-12-20T04:18:58;114.82;;;53.40;;
30818;SDS011;17546;42.674;23.284;2023-12-20T04:21:23;116.78;;;53.97;;
30818;SDS011;17546;42.674;23.284;2023-12-20T04:23:49;120.50;;;54.20;;
30818;SDS011;17546;42.674;23.284;2023-12-20T04:26:14;121.55;;;55.97;;
30818;SDS011;17546;42.674;23.284;2023-12-20T04:28:39;124.95;;;57.45;;
30818;SDS011;17546;42.674;23.284;2023-12-20T04:31:05;120.50;;;54.70;;
30818;SDS011;17546;42.674;23.284;2023-12-20T04:33:30;121.15;;;52.97;;
30818;SDS011;17546;42.674;23.284;2023-12-20T04:35:56;119.85;;;52.78;;
30818;SDS011;17546;42.674;23.284;2023-12-20T04:38:22;122.57;;;55.08;;
30818;SDS011;17546;42.674;23.284;2023-12-20T04:40:48;123.22;;;54.63;;
30818;SDS011;17546;42.674;23.284;2023-12-20T04:43:13;121.95;;;55.63;;
30818;SDS011;17546;42.674;23.284;2023-12-20T04:45:39;116.15;;;53.63;;
30818;SDS011;17546;42.674;23.284;2023-12-20T04:48:04;118.28;;;53.85;;
30818;SDS011;17546;42.674;23.284;2023-12-20T04:50:30;135.52;;;59.85;;
30818;SDS011;17546;42.674;23.284;2023-12-20T04:52:56;130.80;;;57.22;;
30818;SDS011;17546;42.674;23.284;2023-12-20T04:55:22;123.85;;;57.17;;
30818;SDS011;17546;42.674;23.284;2023-12-20T04:57:47;132.43;;;57.80;;
30818;SDS011;17546;42.674;23.284;2023-12-20T05:00:13;123.88;;;56.67;;
30818;SDS011;17546;42.674;23.284;2023-12-20T05:02:40;128.85;;;56.95;;
30818;SDS011;17546;42.674;23.284;2023-12-20T05:05:06;129.23;;;56.38;;
30818;SDS011;17546;42.674;23.284;2023-12-20T05:07:32;124.10;;;56.00;;
30818;SDS011;17546;42.674;23.284;2023-12-20T05:09:58;125.68;;;58.13;;
30818;SDS011;17546;42.674;23.284;2023-12-20T05:12:23;135.70;;;56.97;;
30818;SDS011;17546;42.674;23.284;2023-12-20T05:14:49;134.15;;;58.00;;
30818;SDS011;17546;42.674;23.284;2023-12-20T05:17:16;128.45;;;54.78;;
30818;SDS011;17546;42.674;23.284;2023-12-20T05:19:41;123.28;;;53.30;;
30818;SDS011;17546;42.674;23.284;2023-12-20T05:22:06;131.98;;;54.60;;
30818;SDS011;17546;42.674;23.284;2023-12-20T05:24:32;132.30;;;55.60;;
30818;SDS011;17546;42.674;23.284;2023-12-20T05:26:57;129.00;;;54.20;;
30818;SDS011;17546;42.674;23.284;2023-12-20T05:29:23;125.40;;;52.55;;
30818;SDS011;17546;42.674;23.284;2023-12-20T05:31:48;147.80;;;57.90;;
30818;SDS011;17546;42.674;23.284;2023-12-20T05:34:14;139.88;;;55.05;;
30818;SDS011;17546;42.674;23.284;2023-12-20T05:36:39;141.48;;;57.40;;
30818;SDS011;17546;42.674;23.284;2023-12-20T05:39:05;135.00;;;56.00;;
30818;SDS011;17546;42.674;23.284;2023-12-20T05:41:30;128.90;;;55.60;;
30818;SDS011;17546;42.674;23.284;2023-12-20T05:43:56;139.95;;;55.90;;
30818;SDS011;17546;42.674;23.284;2023-12-20T05:46:24;154.35;;;60.55;;
30818;SDS011;17546;42.674;23.284;2023-12-20T05:48:50;149.70;;;57.60;;
30818;SDS011;17546;42.674;23.284;2023-12-20T05:51:16;139.85;;;56.75;;
30818;SDS011;17546;42.674;23.284;2023-12-20T05:53:43;159.00;;;60.13;;
30818;SDS011;17546;42.674;23.284;2023-12-20T05:56:09;171.70;;;60.15;;
30818;SDS011;17546;42.674;23.284;2023-12-20T05:58:34;161.73;;;63.17;;
30818;SDS011;17546;42.674;23.284;2023-12-20T06:01:00;160.52;;;60.58;;
30818;SDS011;17546;42.674;23.284;2023-12-20T06:03:26;165.23;;;63.90;;
30818;SDS011;17546;42.674;23.284;2023-12-20T06:05:51;163.77;;;62.72;;
30818;SDS011;17546;42.674;23.284;2023-12-20T06:08:17;173.73;;;63.03;;
30818;SDS011;17546;42.674;23.284;2023-12-20T06:10:42;182.52;;;64.40;;
30818;SDS011;17546;42.674;23.284;2023-12-20T06:13:08;168.90;;;61.67;;
30818;SDS011;17546;42.674;23.284;2023-12-20T06:15:33;176.77;;;62.95;;
30818;SDS011;17546;42.674;23.284;2023-12-20T06:18:00;161.60;;;59.42;;
30818;SDS011;17546;42.674;23.284;2023-12-20T06:20:26;167.88;;;62.55;;
30818;SDS011;17546;42.674;23.284;2023-12-20T06:22:51;156.57;;;61.85;;
30818;SDS011;17546;42.674;23.284;2023-12-20T06:25:17;275.10;;;67.30;;
30818;SDS011;17546;42.674;23.284;2023-12-20T06:27:43;183.48;;;64.45;;
30818;SDS011;17546;42.674;23.284;2023-12-20T06:30:08;175.05;;;65.95;;
30818;SDS011;17546;42.674;23.284;2023-12-20T06:32:37;203.45;;;70.55;;
30818;SDS011;17546;42.674;23.284;2023-12-20T06:35:04;174.05;;;66.78;;
30818;SDS011;17546;42.674;23.284;2023-12-20T06:37:30;208.38;;;69.80;;
30818;SDS011;17546;42.674;23.284;2023-12-20T06:39:55;225.82;;;73.65;;
30818;SDS011;17546;42.674;23.284;2023-12-20T06:42:22;188.95;;;69.00;;
30818;SDS011;17546;42.674;23.284;2023-12-20T06:44:47;192.55;;;69.45;;
30818;SDS011;17546;42.674;23.284;2023-12-20T06:47:13;222.60;;;73.60;;
30818;SDS011;17546;42.674;23.284;2023-12-20T06:49:39;194.48;;;69.63;;
30818;SDS011;17546;42.674;23.284;2023-12-20T06:52:05;194.82;;;69.55;;
30818;SDS011;17546;42.674;23.284;2023-12-20T06:54:31;213.43;;;73.75;;
30818;SDS011;17546;42.674;23.284;2023-12-20T06:56:56;215.02;;;77.13;;
30818;SDS011;17546;42.674;23.284;2023-12-20T06:59:21;228.25;;;77.00;;
30818;SDS011;17546;42.674;23.284;2023-12-20T07:01:48;200.10;;;73.65;;
30818;SDS011;17546;42.674;23.284;2023-12-20T07:04:14;218.98;;;78.78;;
30818;SDS011;17546;42.674;23.284;2023-12-20T07:06:39;232.35;;;78.53;;
30818;SDS011;17546;42.674;23.284;2023-12-20T07:09:04;233.57;;;78.15;;
30818;SDS011;17546;42.674;23.284;2023-12-20T07:11:30;234.10;;;80.25;;
30818;SDS011;17546;42.674;23.284;2023-12-20T07:13:55;242.00;;;80.80;;
30818;SDS011;17546;42.674;23.284;2023-12-20T07:16:21;215.95;;;76.43;;
30818;SDS011;17546;42.674;23.284;2023-12-20T07:18:47;212.80;;;75.72;;
30818;SDS011;17546;42.674;23.284;2023-12-20T07:21:13;209.23;;;75.13;;
30818;SDS011;17546;42.674;23.284;2023-12-20T07:23:40;210.95;;;74.70;;
30818;SDS011;17546;42.674;23.284;2023-12-20T07:26:06;216.70;;;77.80;;
30818;SDS011;17546;42.674;23.284;2023-12-20T07:28:32;221.50;;;79.18;;
30818;SDS011;17546;42.674;23.284;2023-12-20T07:30:58;209.00;;;77.10;;
30818;SDS011;17546;42.674;23.284;2023-12-20T07:33:24;223.48;;;80.82;;
30818;SDS011;17546;42.674;23.284;2023-12-20T07:35:50;239.18;;;82.70;;
30818;SDS011;17546;42.674;23.284;2023-12-20T07:38:16;242.57;;;82.88;;
30818;SDS011;17546;42.674;23.284;2023-12-20T07:40:42;253.98;;;87.45;;
30818;SDS011;17546;42.674;23.284;2023-12-20T07:43:07;260.58;;;91.50;;
30818;SDS011;17546;42.674;23.284;2023-12-20T07:45:33;266.20;;;94.93;;
30818;SDS011;17546;42.674;23.284;2023-12-20T07:47:59;272.42;;;96.50;;
30818;SDS011;17546;42.674;23.284;2023-12-20T07:50:24;288.98;;;98.75;;
30818;SDS011;17546;42.674;23.284;2023-12-20T07:52:50;274.00;;;95.15;;
30818;SDS011;17546;42.674;23.284;2023-12-20T07:55:15;271.60;;;94.88;;
30818;SDS011;17546;42.674;23.284;2023-12-20T07:57:41;285.23;;;97.97;;
30818;SDS011;17546;42.674;23.284;2023-12-20T08:00:06;261.35;;;94.07;;
30818;SDS011;17546;42.674;23.284;2023-12-20T08:02:32;276.35;;;96.82;;
30818;SDS011;17546;42.674;23.284;2023-12-20T08:04:57;262.02;;;92.63;;
30818;SDS011;17546;42.674;23.284;2023-12-20T08:07:23;270.63;;;92.15;;
30818;SDS011;17546;42.674;23.284;2023-12-20T08:09:49;289.67;;;93.80;;
30818;SDS011;17546;42.674;23.284;2023-12-20T08:12:14;268.05;;;90.30;;
30818;SDS011;17546;42.674;23.284;2023-12-20T08:14:42;269.67;;;89.53;;
30818;SDS011;17546;42.674;23.284;2023-12-20T08:17:07;257.95;;;88.32;;
30818;SDS011;17546;42.674;23.284;2023-12-20T08:19:32;253.80;;;89.22;;
30818;SDS011;17546;42.674;23.284;2023-12-20T08:21:58;254.05;;;90.47;;
30818;SDS011;17546;42.674;23.284;2023-12-20T08:24:23;269.58;;;91.30;;
30818;SDS011;17546;42.674;23.284;2023-12-20T08:26:49;254.75;;;90.68;;
30818;SDS011;17546;42.674;23.284;2023-12-20T08:29:14;247.75;;;90.78;;
30818;SDS011;17546;42.674;23.284;2023-12-20T08:31:40;244.70;;;91.80;;
30818;SDS011;17546;42.674;23.284;2023-12-20T08:34:05;242.32;;;89.93;;
30818;SDS011;17546;42.674;23.284;2023-12-20T08:36:31;257.73;;;92.13;;
30818;SDS011;17546;42.674;23.284;2023-12-20T08:38:56;258.20;;;94.38;;
30818;SDS011;17546;42.674;23.284;2023-12-20T08:41:22;271.75;;;96.50;;
30818;SDS011;17546;42.674;23.284;2023-12-20T08:43:47;265.33;;;95.57;;
30818;SDS011;17546;42.674;23.284;2023-12-20T08:46:14;244.32;;;93.75;;
30818;SDS011;17546;42.674;23.284;2023-12-20T08:48:40;259.35;;;95.45;;
30818;SDS011;17546;42.674;23.284;2023-12-20T08:51:05;250.38;;;91.97;;
30818;SDS011;17546;42.674;23.284;2023-12-20T08:53:34;250.68;;;93.63;;
30818;SDS011;17546;42.674;23.284;2023-12-20T08:55:59;250.23;;;95.72;;
30818;SDS011;17546;42.674;23.284;2023-12-20T08:58:27;274.40;;;97.88;;
30818;SDS011;17546;42.674;23.284;2023-12-20T09:00:53;264.55;;;98.68;;
30818;SDS011;17546;42.674;23.284;2023-12-20T09:03:18;298.83;;;103.18;;
30818;SDS011;17546;42.674;23.284;2023-12-20T09:05:44;271.75;;;100.22;;
30818;SDS011;17546;42.674;23.284;2023-12-20T09:08:09;281.05;;;101.68;;
30818;SDS011;17546;42.674;23.284;2023-12-20T09:10:35;274.10;;;101.95;;
30818;SDS011;17546;42.674;23.284;2023-12-20T09:13:02;270.13;;;100.10;;
30818;SDS011;17546;42.674;23.284;2023-12-20T09:15:29;267.45;;;101.13;;
30818;SDS011;17546;42.674;23.284;2023-12-20T09:17:55;278.27;;;100.10;;
30818;SDS011;17546;42.674;23.284;2023-12-20T09:20:21;276.38;;;101.53;;
30818;SDS011;17546;42.674;23.284;2023-12-20T09:22:48;281.67;;;103.95;;
30818;SDS011;17546;42.674;23.284;2023-12-20T09:25:14;286.05;;;107.80;;
30818;SDS011;17546;42.674;23.284;2023-12-20T09:27:41;282.60;;;104.45;;
30818;SDS011;17546;42.674;23.284;2023-12-20T09:30:06;280.77;;;100.68;;
30818;SDS011;17546;42.674;23.284;2023-12-20T09:32:32;286.60;;;103.70;;
30818;SDS011;17546;42.674;23.284;2023-12-20T09:34:58;284.27;;;104.63;;
30818;SDS011;17546;42.674;23.284;2023-12-20T09:37:26;276.75;;;102.13;;
30818;SDS011;17546;42.674;23.284;2023-12-20T09:39:52;270.45;;;101.72;;
30818;SDS011;17546;42.674;23.284;2023-12-20T09:42:25;287.83;;;106.95;;
30818;SDS011;17546;42.674;23.284;2023-12-20T09:45:02;296.57;;;103.70;;
30818;SDS011;17546;42.674;23.284;2023-12-20T09:47:32;271.60;;;102.57;;
30818;SDS011;17546;42.674;23.284;2023-12-20T09:49:58;276.90;;;105.97;;
30818;SDS011;17546;42.674;23.284;2023-12-20T09:52:23;260.80;;;102.60;;
30818;SDS011;17546;42.674;23.284;2023-12-20T09:54:49;251.68;;;101.00;;
30818;SDS011;17546;42.674;23.284;2023-12-20T09:57:16;255.13;;;100.65;;
30818;SDS011;17546;42.674;23.284;2023-12-20T09:59:41;251.77;;;102.32;;
30818;SDS011;17546;42.674;23.284;2023-12-20T10:02:08;254.27;;;100.82;;
30818;SDS011;17546;42.674;23.284;2023-12-20T10:04:38;259.40;;;102.72;;
30818;SDS011;17546;42.674;23.284;2023-12-20T10:07:11;260.60;;;101.78;;
30818;SDS011;17546;42.674;23.284;2023-12-20T10:09:36;253.77;;;101.70;;
30818;SDS011;17546;42.674;23.284;2023-12-20T10:12:02;260.98;;;100.97;;
30818;SDS011;17546;42.674;23.284;2023-12-20T10:14:30;248.68;;;100.20;;
30818;SDS011;17546;42.674;23.284;2023-12-20T10:17:03;240.13;;;94.20;;
30818;SDS011;17546;42.674;23.284;2023-12-20T10:19:30;232.10;;;97.13;;
30818;SDS011;17546;42.674;23.284;2023-12-20T10:21:57;245.63;;;97.10;;
30818;SDS011;17546;42.674;23.284;2023-12-20T10:24:28;255.40;;;98.07;;
30818;SDS011;17546;42.674;23.284;2023-12-20T10:27:05;250.88;;;100.82;;
30818;SDS011;17546;42.674;23.284;2023-12-20T10:34:51;253.35;;;103.72;;
30818;SDS011;17546;42.674;23.284;2023-12-20T10:37:18;238.20;;;98.88;;
30818;SDS011;17546;42.674;23.284;2023-12-20T10:39:44;239.60;;;99.60;;
30818;SDS011;17546;42.674;23.284;2023-12-20T10:42:15;243.68;;;100.45;;
30818;SDS011;17546;42.674;23.284;2023-12-20T10:44:41;248.75;;;99.18;;
30818;SDS011;17546;42.674;23.284;2023-12-20T10:47:07;229.68;;;99.05;;
30818;SDS011;17546;42.674;23.284;2023-12-20T10:49:36;247.80;;;101.15;;
30818;SDS011;17546;42.674;23.284;2023-12-20T10:52:03;247.70;;;103.97;;
30818;SDS011;17546;42.674;23.284;2023-12-20T10:54:30;239.07;;;99.45;;
30818;SDS011;17546;42.674;23.284;2023-12-20T10:56:57;249.85;;;100.57;;
30818;SDS011;17546;42.674;23.284;2023-12-20T10:59:23;239.32;;;100.82;;
30818;SDS011;17546;42.674;23.284;2023-12-20T11:01:50;240.65;;;101.30;;
30818;SDS011;17546;42.674;23.284;2023-12-20T11:04:18;240.43;;;101.55;;
30818;SDS011;17546;42.674;23.284;2023-12-20T11:06:49;238.70;;;101.70;;
30818;SDS011;17546;42.674;23.284;2023-12-20T11:14:40;242.23;;;102.30;;
30818;SDS011;17546;42.674;23.284;2023-12-20T11:17:11;240.90;;;101.10;;
30818;SDS011;17546;42.674;23.284;2023-12-20T11:22:25;245.88;;;104.05;;
30818;SDS011;17546;42.674;23.284;2023-12-20T11:24:59;255.45;;;106.07;;
30818;SDS011;17546;42.674;23.284;2023-12-20T11:27:30;259.35;;;107.45;;
30818;SDS011;17546;42.674;23.284;2023-12-20T11:29:56;266.60;;;109.40;;
30818;SDS011;17546;42.674;23.284;2023-12-20T11:37:28;259.23;;;112.65;;
30818;SDS011;17546;42.674;23.284;2023-12-20T11:40:03;279.42;;;112.85;;
30818;SDS011;17546;42.674;23.284;2023-12-20T11:42:38;274.48;;;112.28;;
30818;SDS011;17546;42.674;23.284;2023-12-20T11:45:07;286.75;;;112.05;;
30818;SDS011;17546;42.674;23.284;2023-12-20T11:47:34;279.48;;;112.47;;
30818;SDS011;17546;42.674;23.284;2023-12-20T11:50:00;276.08;;;111.60;;
30818;SDS011;17546;42.674;23.284;2023-12-20T11:52:28;285.70;;;115.10;;
30818;SDS011;17546;42.674;23.284;2023-12-20T11:54:54;272.23;;;112.45;;
30818;SDS011;17546;42.674;23.284;2023-12-20T11:57:19;276.13;;;108.28;;
30818;SDS011;17546;42.674;23.284;2023-12-20T11:59:45;273.55;;;107.88;;
30818;SDS011;17546;42.674;23.284;2023-12-20T12:02:13;270.85;;;109.07;;
30818;SDS011;17546;42.674;23.284;2023-12-20T12:04:43;263.73;;;106.47;;
30818;SDS011;17546;42.674;23.284;2023-12-20T12:07:08;229.20;;;99.20;;
30818;SDS011;17546;42.674;23.284;2023-12-20T12:09:34;221.35;;;92.60;;
30818;SDS011;17546;42.674;23.284;2023-12-20T12:12:00;215.43;;;91.28;;
30818;SDS011;17546;42.674;23.284;2023-12-20T12:14:26;225.95;;;91.97;;
30818;SDS011;17546;42.674;23.284;2023-12-20T12:16:52;212.38;;;87.60;;
30818;SDS011;17546;42.674;23.284;2023-12-20T12:19:21;207.98;;;87.45;;
30818;SDS011;17546;42.674;23.284;2023-12-20T12:21:48;212.07;;;86.93;;
30818;SDS011;17546;42.674;23.284;2023-12-20T12:24:14;209.50;;;83.50;;
30818;SDS011;17546;42.674;23.284;2023-12-20T12:26:40;210.70;;;83.32;;
30818;SDS011;17546;42.674;23.284;2023-12-20T12:29:08;204.73;;;81.85;;
30818;SDS011;17546;42.674;23.284;2023-12-20T12:31:34;202.32;;;80.85;;
30818;SDS011;17546;42.674;23.284;2023-12-20T12:34:01;197.13;;;82.60;;
30818;SDS011;17546;42.674;23.284;2023-12-20T12:36:27;207.05;;;82.95;;
30818;SDS011;17546;42.674;23.284;2023-12-20T12:38:55;189.63;;;80.57;;
30818;SDS011;17546;42.674;23.284;2023-12-20T12:41:22;203.35;;;83.22;;
30818;SDS011;17546;42.674;23.284;2023-12-20T12:43:48;199.90;;;81.10;;
30818;SDS011;17546;42.674;23.284;2023-12-20T12:46:13;215.68;;;85.68;;
30818;SDS011;17546;42.674;23.284;2023-12-20T12:48:39;216.05;;;88.88;;
30818;SDS011;17546;42.674;23.284;2023-12-20T12:51:05;214.00;;;89.28;;
30818;SDS011;17546;42.674;23.284;2023-12-20T12:53:32;217.13;;;90.60;;
30818;SDS011;17546;42.674;23.284;2023-12-20T12:55:57;220.82;;;87.80;;
30818;SDS011;17546;42.674;23.284;2023-12-20T12:58:23;228.38;;;90.43;;
30818;SDS011;17546;42.674;23.284;2023-12-20T13:00:50;217.50;;;89.45;;
30818;SDS011;17546;42.674;23.284;2023-12-20T13:03:15;234.00;;;92.10;;
30818;SDS011;17546;42.674;23.284;2023-12-20T13:05:41;215.38;;;91.47;;
30818;SDS011;17546;42.674;23.284;2023-12-20T13:08:07;230.98;;;93.72;;
30818;SDS011;17546;42.674;23.284;2023-12-20T13:10:32;222.18;;;93.55;;
30818;SDS011;17546;42.674;23.284;2023-12-20T13:12:58;223.15;;;94.97;;
30818;SDS011;17546;42.674;23.284;2023-12-20T13:15:23;231.27;;;96.38;;
30818;SDS011;17546;42.674;23.284;2023-12-20T13:17:49;235.57;;;98.15;;
30818;SDS011;17546;42.674;23.284;2023-12-20T13:20:14;231.23;;;96.32;;
30818;SDS011;17546;42.674;23.284;2023-12-20T13:22:40;227.30;;;95.70;;
30818;SDS011;17546;42.674;23.284;2023-12-20T13:25:05;240.23;;;101.30;;
30818;SDS011;17546;42.674;23.284;2023-12-20T13:27:31;234.27;;;97.78;;
30818;SDS011;17546;42.674;23.284;2023-12-20T13:29:58;231.27;;;93.50;;
30818;SDS011;17546;42.674;23.284;2023-12-20T13:32:23;212.50;;;89.22;;
30818;SDS011;17546;42.674;23.284;2023-12-20T13:34:49;220.80;;;90.55;;
30818;SDS011;17546;42.674;23.284;2023-12-20T13:37:15;213.85;;;94.35;;
30818;SDS011;17546;42.674;23.284;2023-12-20T13:39:40;243.18;;;97.93;;
30818;SDS011;17546;42.674;23.284;2023-12-20T13:42:06;228.63;;;96.20;;
30818;SDS011;17546;42.674;23.284;2023-12-20T13:44:31;237.70;;;98.35;;
30818;SDS011;17546;42.674;23.284;2023-12-20T13:46:57;224.45;;;97.22;;
30818;SDS011;17546;42.674;23.284;2023-12-20T13:49:22;224.90;;;93.45;;
30818;SDS011;17546;42.674;23.284;2023-12-20T13:51:50;224.18;;;94.03;;
30818;SDS011;17546;42.674;23.284;2023-12-20T13:54:16;238.00;;;97.00;;
30818;SDS011;17546;42.674;23.284;2023-12-20T13:56:45;231.00;;;95.93;;
30818;SDS011;17546;42.674;23.284;2023-12-20T13:59:10;233.48;;;97.07;;
30818;SDS011;17546;42.674;23.284;2023-12-20T14:01:36;229.63;;;97.00;;
30818;SDS011;17546;42.674;23.284;2023-12-20T14:04:02;231.15;;;98.65;;
30818;SDS011;17546;42.674;23.284;2023-12-20T14:06:27;228.90;;;98.43;;
30818;SDS011;17546;42.674;23.284;2023-12-20T14:08:53;236.60;;;97.63;;